Curtin, Oregon
Current Conditions -  °F | °C
As of 3:54 AM on Friday 28 Nov 2014 (Local Time) from KEUG Reporting Station
Moderate Rain Moderate Rain  
Wind Chill: 52°   Ceiling: 5000
Heat Index: 52°   Visibility: 4mi
Dew Point: 49°   Wind: 5mph
Humidity: 89%   Direction: 180°S
Pressure: 29.78"   Gusts: NA
Location:  43.72°N, 123.21°W
Report Text: KEUG 281154Z AUTO 18004KT 4SM RA BR SCT041 BKN050 OVC070 11/09 A2978 RMK AO2 CIG 041 RNW 34 SLP085 P0010 60011 70032 T01110094 10122 20106 56013
Loading
Personal Weather Stations






























Interactive Weather Map New forecast layout! Learn more

10-Day Weather Forecast

Advertisements
Track Severe Weather on mobile